Airfield :
LOGIN :

Register | Disclaimer

   EN    FR    IT 

 










Legend :    VFR   Marginal VFR   IFR   Intensive IFR   Very Intensive IFR
Visi :
Ceiling :
>= 8 km
>= 3000ft
5 to 8 km
1000 to 3000 ft
1500m to 5 km
500 to 1000 ft
800 to 1500m
200 to 500 ft
< 800m
< 200 ft
Symbols :   Thunderstorms  Fog  Heavy snow  Heavy precipitations  Wind > 20 kt
SIGMETs :     Misc.  Thunderstorms  Icing  Turbulence  Mountain Waves  Volcanic Ashes







- Airport Elevation : 219 ft
- IATA code : DNR
- Download approach charts


LFRD - Dinard

CURRENT METAR :
  • 152130Z AUTO 33005KT 9999 FEW007 15/14 Q1024 BECMG 0700 FG

EXPIRED METARs :
  • 152100Z AUTO 33007KT 9999 FEW008 15/14 Q1024 BECMG 0700 FG
  • 152030Z AUTO 33006KT CAVOK 15/14 Q1024 BECMG 0700 FG
  • 152000Z AUTO 32006KT CAVOK 15/14 Q1024 BECMG 0700 FG
  • 151930Z AUTO 32006KT CAVOK 15/14 Q1024 NOSIG

TAF TAF LFRD
Valid from the 15 at 18:00 until the 16 at 18:00 UTC


151700Z 1518/1618 36008KT CAVOK
BECMG 1522/1524 VRB03KT 0700 FG SCT001
BECMG 1600/1602 0500 FG VV///
BECMG 1606/1608 9999 BKN010
BECMG 1608/1610 34008KT
BECMG 1610/1612 BKN015
BECMG 1612/1615 BKN017
ATIS : +33 2 99 16 81 50
No reported NOTAMs for that airfield.



MET'MAP, your aeronautical weather chart ! - Copyright ORBIFLY December 2007 - Disclaimer

ORBIFLY MET'MAP TEAM :

Programming & Development : Alexandra Zaïnal
Concept & Development : Baudouin d'Aumeries
Co-Development & Prog : Marc-Olivier Méhu
Technical & hardware support : Manuel Goepfert

Contact : metmap@orbifly.com




SOURCES & CREDITS :

   NOAA